createdAt,value
2023-05-20T00:00:18.416Z,56.2
2023-05-20T00:05:18.376Z,56.2
2023-05-20T00:10:18.699Z,56.1
2023-05-20T00:15:18.449Z,56.0
2023-05-20T00:20:18.784Z,55.9
2023-05-20T00:25:18.413Z,55.9
2023-05-20T00:30:18.454Z,55.8
2023-05-20T00:35:18.542Z,55.9
2023-05-20T00:40:18.659Z,56.1
2023-05-20T00:45:18.493Z,56.1
2023-05-20T00:50:18.761Z,55.9
2023-05-20T00:55:19.206Z,55.8
2023-05-20T01:00:18.714Z,55.8
2023-05-20T01:05:18.472Z,55.6
2023-05-20T01:10:18.784Z,55.6
2023-05-20T01:15:18.563Z,55.4
2023-05-20T01:20:18.668Z,55.4
2023-05-20T01:25:19.077Z,55.3
2023-05-20T01:30:18.609Z,55.3
2023-05-20T01:35:18.765Z,55.2
2023-05-20T01:40:18.770Z,55.1
2023-05-20T01:45:19.624Z,55.1
2023-05-20T01:50:19.279Z,55.1
2023-05-20T01:55:18.791Z,55.1
2023-05-20T02:00:18.753Z,55.1
2023-05-20T02:05:19.361Z,55.1
2023-05-20T02:10:18.923Z,55.0
2023-05-20T02:20:18.825Z,55.0
2023-05-20T02:25:18.852Z,54.8
2023-05-20T02:30:18.900Z,54.8
2023-05-20T02:35:18.751Z,54.6
2023-05-20T02:40:19.367Z,54.6
2023-05-20T02:45:18.688Z,54.5
2023-05-20T02:50:18.916Z,54.4
2023-05-20T02:55:18.832Z,54.3
2023-05-20T03:00:19.047Z,54.3
2023-05-20T03:05:18.879Z,54.3
2023-05-20T03:10:19.274Z,54.2
2023-05-20T03:15:19.118Z,54.2
2023-05-20T03:20:18.889Z,54.1
2023-05-20T03:25:18.826Z,54.0
2023-05-20T03:30:18.961Z,53.9
2023-05-20T03:35:18.807Z,53.9
2023-05-20T03:40:18.999Z,54.1
2023-05-20T03:45:17.850Z,53.9
2023-05-20T03:50:18.756Z,53.7
2023-05-20T03:55:17.286Z,53.5
2023-05-20T04:00:18.119Z,53.4
2023-05-20T04:05:17.878Z,53.5
2023-05-20T04:10:18.478Z,53.5
2023-05-20T04:15:18.034Z,53.5
2023-05-20T04:20:18.200Z,53.5
2023-05-20T04:25:18.457Z,53.5
2023-05-20T04:30:18.227Z,53.5
2023-05-20T04:35:17.923Z,53.5
2023-05-20T04:40:18.136Z,53.5
2023-05-20T04:45:17.992Z,53.5
2023-05-20T04:50:18.017Z,53.4
2023-05-20T04:55:18.127Z,53.3
2023-05-20T05:00:18.496Z,53.3
2023-05-20T05:05:18.081Z,53.4
2023-05-20T05:10:18.195Z,53.4
2023-05-20T05:15:18.037Z,53.5
2023-05-20T05:20:18.526Z,53.5
2023-05-20T05:25:18.154Z,53.4
2023-05-20T05:30:18.584Z,53.3
2023-05-20T05:35:18.507Z,53.3
2023-05-20T05:40:18.471Z,53.3
2023-05-20T05:45:19.102Z,53.3
2023-05-20T05:50:19.354Z,53.3
2023-05-20T05:55:18.281Z,53.3
2023-05-20T06:00:18.496Z,53.2
2023-05-20T06:05:18.193Z,53.2
2023-05-20T06:10:18.925Z,53.2
2023-05-20T06:15:18.382Z,53.2
2023-05-20T06:20:18.311Z,53.1
2023-05-20T06:25:18.384Z,53.2
2023-05-20T06:30:18.599Z,53.2
2023-05-20T06:35:18.244Z,53.2
2023-05-20T06:40:18.657Z,53.2
2023-05-20T06:45:18.561Z,53.2
2023-05-20T06:50:18.353Z,53.2
2023-05-20T06:55:18.461Z,53.2
2023-05-20T07:00:18.313Z,53.2
2023-05-20T07:05:18.425Z,53.2
2023-05-20T07:10:18.569Z,53.1
2023-05-20T07:15:18.845Z,53.1
2023-05-20T07:20:18.238Z,53.1
2023-05-20T07:40:21.937Z,53.0
2023-05-20T07:45:19.315Z,52.9
2023-05-20T07:50:20.212Z,52.8
2023-05-20T07:55:18.692Z,52.8
2023-05-20T08:00:18.539Z,52.8
2023-05-20T08:05:18.565Z,52.5
2023-05-20T08:10:18.697Z,52.6
2023-05-20T08:15:18.488Z,52.6
2023-05-20T08:20:18.500Z,52.6
2023-05-20T08:25:19.211Z,52.4
2023-05-20T08:30:18.548Z,52.3
2023-05-20T08:35:18.847Z,52.3
2023-05-20T08:40:18.785Z,52.8
2023-05-20T08:45:18.537Z,52.9
2023-05-20T08:50:18.617Z,53.0
2023-05-20T08:55:18.722Z,53.1
2023-05-20T09:00:20.649Z,53.3
2023-05-20T09:05:18.688Z,53.3
2023-05-20T09:10:18.757Z,53.4
2023-05-20T09:15:18.654Z,53.3
2023-05-20T09:20:18.676Z,53.2
2023-05-20T09:25:18.825Z,53.4
2023-05-20T09:30:18.638Z,53.7
2023-05-20T09:35:19.287Z,53.7
2023-05-20T09:40:18.824Z,53.5
2023-05-20T09:45:20.080Z,53.3
2023-05-20T09:50:19.851Z,53.2
2023-05-20T09:55:18.827Z,53.3
2023-05-20T10:00:18.745Z,53.7
2023-05-20T10:05:18.751Z,53.8
2023-05-20T10:10:19.583Z,53.9
2023-05-20T10:15:18.814Z,53.9
2023-05-20T10:20:18.823Z,53.9
2023-05-20T10:25:20.974Z,53.9
2023-05-20T10:30:18.774Z,53.9
2023-05-20T10:35:18.883Z,53.8
2023-05-20T10:40:19.108Z,53.7
2023-05-20T10:45:19.115Z,53.7
2023-05-20T10:50:19.179Z,53.7
2023-05-20T10:55:19.427Z,53.7
2023-05-20T11:00:18.926Z,53.8
2023-05-20T11:05:18.840Z,53.7
2023-05-20T11:10:19.045Z,53.6
2023-05-20T11:15:16.946Z,53.7
2023-05-20T11:20:17.370Z,53.9
2023-05-20T11:25:17.116Z,54.2
2023-05-20T11:30:17.005Z,54.3
2023-05-20T11:35:16.950Z,54.3
2023-05-20T11:40:17.140Z,54.2
2023-05-20T11:45:17.973Z,54.1
2023-05-20T11:50:18.721Z,54.1
2023-05-20T11:55:17.415Z,54.0
2023-05-20T12:00:16.992Z,54.0
2023-05-20T12:05:17.154Z,54.0
2023-05-20T12:10:17.177Z,53.9
2023-05-20T12:15:17.008Z,54.0
2023-05-20T12:20:17.119Z,54.0
2023-05-20T12:25:17.578Z,53.9
2023-05-20T12:30:16.974Z,53.9
2023-05-20T12:35:17.007Z,53.8
2023-05-20T12:40:17.362Z,53.9
2023-05-20T12:45:17.123Z,54.0
2023-05-20T12:50:17.217Z,54.0
2023-05-20T12:55:17.150Z,53.8
2023-05-20T13:00:17.697Z,53.8
2023-05-20T13:05:17.588Z,53.8
2023-05-20T13:10:17.370Z,53.8
2023-05-20T13:15:17.534Z,53.8
2023-05-20T13:20:19.176Z,54.0
2023-05-20T13:25:17.392Z,54.2
2023-05-20T13:30:17.335Z,54.6
2023-05-20T13:35:17.465Z,54.7
2023-05-20T13:40:17.304Z,54.7
2023-05-20T13:45:18.405Z,54.8
2023-05-20T13:50:18.230Z,54.5
2023-05-20T13:55:18.256Z,54.4
2023-05-20T14:00:17.215Z,54.7
2023-05-20T14:05:17.539Z,54.6
2023-05-20T14:10:17.768Z,54.6
2023-05-20T14:15:17.866Z,54.5
2023-05-20T14:20:17.360Z,54.6
2023-05-20T14:25:17.637Z,54.7
2023-05-20T14:30:17.295Z,54.6
2023-05-20T14:35:17.280Z,54.5
2023-05-20T14:40:17.593Z,54.4
2023-05-20T14:45:18.063Z,54.5
2023-05-20T14:50:17.482Z,54.6
2023-05-20T14:55:17.540Z,54.7
2023-05-20T15:00:17.352Z,54.9
2023-05-20T15:05:17.295Z,55.1
2023-05-20T15:10:17.901Z,55.3
2023-05-20T15:15:18.206Z,55.3
2023-05-20T15:20:17.650Z,55.4
2023-05-20T15:25:17.578Z,55.3
2023-05-20T15:30:17.555Z,55.3
2023-05-20T15:35:17.684Z,55.2
2023-05-20T15:40:17.611Z,55.4
2023-05-20T15:45:19.589Z,55.5
2023-05-20T15:50:19.205Z,55.6
2023-05-20T15:55:17.678Z,55.7
2023-05-20T16:00:17.678Z,55.8
2023-05-20T16:05:17.560Z,55.7
2023-05-20T16:10:17.598Z,55.7
2023-05-20T16:15:17.858Z,55.6
2023-05-20T16:20:17.937Z,55.5
2023-05-20T16:25:18.225Z,55.4
2023-05-20T16:30:17.639Z,55.2
2023-05-20T16:35:17.648Z,55.2
2023-05-20T16:40:17.815Z,55.0
2023-05-20T16:45:18.113Z,55.0
2023-05-20T16:50:17.807Z,54.7
2023-05-20T16:55:17.745Z,54.6
2023-05-20T17:00:17.967Z,54.6
2023-05-20T17:05:17.729Z,54.6
2023-05-20T17:10:17.897Z,54.6
2023-05-20T17:15:18.256Z,54.5
2023-05-20T17:20:17.825Z,54.6
2023-05-20T17:25:17.857Z,54.9
2023-05-20T17:30:17.878Z,55.1
2023-05-20T17:35:18.099Z,55.2
2023-05-20T17:40:17.940Z,55.3
2023-05-20T17:45:20.178Z,55.1
2023-05-20T17:50:18.800Z,54.8
2023-05-20T17:55:17.881Z,54.7
2023-05-20T18:00:17.758Z,54.6
2023-05-20T18:05:17.817Z,54.5
2023-05-20T18:10:18.407Z,54.4
2023-05-20T18:15:18.353Z,54.3
2023-05-20T18:20:17.830Z,54.0
2023-05-20T18:25:17.991Z,54.0
2023-05-20T18:30:19.308Z,54.0
2023-05-20T18:35:17.842Z,54.0
2023-05-20T18:40:18.103Z,54.2
2023-05-20T18:45:18.664Z,54.1
2023-05-20T18:50:18.136Z,54.1
2023-05-20T18:55:18.411Z,54.2
2023-05-20T19:00:17.937Z,54.5
2023-05-20T19:05:17.902Z,54.9
2023-05-20T19:10:18.295Z,55.3
2023-05-20T19:15:18.310Z,55.3
2023-05-20T19:20:18.387Z,55.3
2023-05-20T19:25:18.273Z,55.3
2023-05-20T19:30:18.059Z,55.3
2023-05-20T19:35:17.982Z,55.5
2023-05-20T19:40:18.461Z,55.4
2023-05-20T19:45:20.033Z,55.3
2023-05-20T19:50:19.790Z,55.1
2023-05-20T19:55:18.406Z,55.0
2023-05-20T20:00:18.127Z,54.9
2023-05-20T20:05:18.370Z,54.9
2023-05-20T20:10:18.271Z,54.9
2023-05-20T20:15:18.471Z,54.8
2023-05-20T20:20:18.548Z,54.7
2023-05-20T20:25:18.824Z,54.6
2023-05-20T20:30:18.514Z,54.6
2023-05-20T20:35:18.098Z,54.7
2023-05-20T20:40:18.293Z,54.8
2023-05-20T20:45:18.300Z,54.7
2023-05-20T20:50:18.185Z,54.6
2023-05-20T20:55:18.319Z,54.6
2023-05-20T21:00:18.556Z,54.8
2023-05-20T21:05:18.196Z,54.9
2023-05-20T21:10:18.393Z,55.0
2023-05-20T21:15:19.140Z,55.0
2023-05-20T21:20:20.908Z,55.3
2023-05-20T21:25:18.536Z,55.3
2023-05-20T21:30:18.294Z,55.3
2023-05-20T21:35:19.562Z,55.3
2023-05-20T21:40:18.450Z,55.3
2023-05-20T21:45:20.402Z,55.5
2023-05-20T21:50:19.653Z,55.6
2023-05-20T21:55:18.595Z,55.6
2023-05-20T22:00:18.301Z,55.5
2023-05-20T22:05:18.526Z,55.4
2023-05-20T22:10:19.754Z,55.3
2023-05-20T22:15:18.408Z,55.2
2023-05-20T22:20:18.419Z,55.5
2023-05-20T22:25:18.888Z,55.6
2023-05-20T22:30:18.511Z,55.6
2023-05-20T22:35:18.417Z,55.7
2023-05-20T22:40:18.684Z,55.9
2023-05-20T22:45:18.873Z,55.8
2023-05-20T22:50:18.544Z,55.9
2023-05-20T22:55:18.519Z,56.1
2023-05-20T23:00:18.694Z,56.0
2023-05-20T23:05:18.427Z,55.9
2023-05-20T23:10:18.620Z,56.0
2023-05-20T23:15:18.486Z,55.9
2023-05-20T23:20:18.832Z,56.0
2023-05-20T23:25:18.627Z,56.1
2023-05-20T23:30:18.595Z,55.9
2023-05-20T23:35:18.691Z,55.9
2023-05-20T23:40:18.753Z,56.1
2023-05-20T23:45:20.680Z,56.2
2023-05-20T23:50:19.753Z,56.2
2023-05-20T23:55:18.801Z,56.2
